Airfield :
LOGIN :

Register | Disclaimer

   EN    FR    IT 

 










Legend :    VFR   Marginal VFR   IFR   Intensive IFR   Very Intensive IFR
Visi :
Ceiling :
>= 8 km
>= 3000ft
5 to 8 km
1000 to 3000 ft
1500m to 5 km
500 to 1000 ft
800 to 1500m
200 to 500 ft
< 800m
< 200 ft
Symbols :   Thunderstorms  Fog  Heavy snow  Heavy precipitations  Wind > 20 kt
SIGMETs :     Misc.  Thunderstorms  Icing  Turbulence  Mountain Waves  Volcanic Ashes







- Airport Elevation : 122 ft
- IATA code : TXL


EDDT - Berlin Tegel Int.

CURRENT METAR :
  • 240650Z 28008KT 250V310 3000 -DZ BKN007 OVC008 12/12 Q1018 TEMPO 1200 -DZ BKN004

EXPIRED METARs :
  • 240620Z 28009KT 260V320 9999 OVC008 12/11 Q1018 NOSIG
  • 240550Z 28008KT 9999 -RADZ BKN010 12/11 Q1018 NOSIG
  • 240520Z 28008KT 260V320 9999 -RADZ BKN008 OVC009 12/11 Q1018 TEMPO BKN010
  • 240450Z 28009KT 260V320 2500 -RADZ SCT007 OVC008 12/11 Q1018 TEMPO BKN004
  • 240420Z 28008KT 6000 -RADZ BKN007 BKN015 12/11 Q1018 TEMPO 4500

TAF TAF EDDT
Valid from the 24 at 06:00 until the 25 at 06:00 UTC


240500Z 2406/2506 28010KT 9999 BKN012
PROB40
TEMPO 2406/2410 4000 -DZRA BKN008
BECMG 2408/2411 BKN020 BKN040
BECMG 2413/2416 28005KT
PROB30
TEMPO 2417/2506 4000 BR BKN008
No reported NOTAMs for that airfield.



MET'MAP, your aeronautical weather chart ! - Copyright ORBIFLY December 2007 - Disclaimer

ORBIFLY MET'MAP TEAM :

Programming & Development : Alexandra Zaïnal
Concept & Development : Baudouin d'Aumeries
Co-Development & Prog : Marc-Olivier Méhu
Technical & hardware support : Manuel Goepfert

Contact : metmap@orbifly.com




SOURCES & CREDITS :

   NOAA